sensor_id;sensor_type;location;lat;lon;timestamp;temperature;humidity
74155;DHT22;62509;46.248;6.018;2023-12-07T00:02:45;1.90;99.90
74155;DHT22;62509;46.248;6.018;2023-12-07T00:07:50;1.70;99.90
74155;DHT22;62509;46.248;6.018;2023-12-07T00:12:54;1.70;99.90
74155;DHT22;62509;46.248;6.018;2023-12-07T00:17:58;1.70;99.90
74155;DHT22;62509;46.248;6.018;2023-12-07T00:23:03;1.70;99.90
74155;DHT22;62509;46.248;6.018;2023-12-07T00:28:07;1.80;99.90
74155;DHT22;62509;46.248;6.018;2023-12-07T00:33:11;1.80;99.90
74155;DHT22;62509;46.248;6.018;2023-12-07T00:38:15;1.70;99.90
74155;DHT22;62509;46.248;6.018;2023-12-07T00:43:19;1.60;99.90
74155;DHT22;62509;46.248;6.018;2023-12-07T00:48:22;1.70;99.90
74155;DHT22;62509;46.248;6.018;2023-12-07T00:53:27;1.80;99.90
74155;DHT22;62509;46.248;6.018;2023-12-07T00:58:30;1.80;99.90
74155;DHT22;62509;46.248;6.018;2023-12-07T01:03:33;1.80;99.90
74155;DHT22;62509;46.248;6.018;2023-12-07T01:08:38;1.70;99.90
74155;DHT22;62509;46.248;6.018;2023-12-07T01:13:41;1.60;99.90
74155;DHT22;62509;46.248;6.018;2023-12-07T01:18:45;1.70;99.90
74155;DHT22;62509;46.248;6.018;2023-12-07T01:23:50;1.70;99.90
74155;DHT22;62509;46.248;6.018;2023-12-07T01:29:07;1.70;99.90
74155;DHT22;62509;46.248;6.018;2023-12-07T01:34:10;1.80;99.90
74155;DHT22;62509;46.248;6.018;2023-12-07T01:39:15;1.90;99.90
74155;DHT22;62509;46.248;6.018;2023-12-07T01:44:18;1.90;99.90
74155;DHT22;62509;46.248;6.018;2023-12-07T01:49:21;1.90;99.90
74155;DHT22;62509;46.248;6.018;2023-12-07T01:54:26;1.90;99.90
74155;DHT22;62509;46.248;6.018;2023-12-07T01:59:30;2.00;99.90
74155;DHT22;62509;46.248;6.018;2023-12-07T02:04:34;2.10;99.90
74155;DHT22;62509;46.248;6.018;2023-12-07T02:09:39;2.00;99.90
74155;DHT22;62509;46.248;6.018;2023-12-07T02:14:44;2.10;99.90
74155;DHT22;62509;46.248;6.018;2023-12-07T02:19:50;2.00;99.90
74155;DHT22;62509;46.248;6.018;2023-12-07T02:25:05;1.90;99.90
74155;DHT22;62509;46.248;6.018;2023-12-07T02:30:12;2.00;99.90
74155;DHT22;62509;46.248;6.018;2023-12-07T02:35:15;2.10;99.90
74155;DHT22;62509;46.248;6.018;2023-12-07T02:40:19;2.10;99.90
74155;DHT22;62509;46.248;6.018;2023-12-07T02:45:26;2.20;99.90
74155;DHT22;62509;46.248;6.018;2023-12-07T02:50:30;2.20;99.90
74155;DHT22;62509;46.248;6.018;2023-12-07T02:55:33;2.30;99.90
74155;DHT22;62509;46.248;6.018;2023-12-07T03:00:39;2.40;99.90
74155;DHT22;62509;46.248;6.018;2023-12-07T03:05:42;2.50;99.90
74155;DHT22;62509;46.248;6.018;2023-12-07T03:10:46;2.20;99.90
74155;DHT22;62509;46.248;6.018;2023-12-07T03:15:51;2.30;99.90
74155;DHT22;62509;46.248;6.018;2023-12-07T03:20:54;2.30;99.90
74155;DHT22;62509;46.248;6.018;2023-12-07T03:25:58;2.30;99.90
74155;DHT22;62509;46.248;6.018;2023-12-07T03:31:03;2.30;99.90
74155;DHT22;62509;46.248;6.018;2023-12-07T03:36:07;2.30;99.90
74155;DHT22;62509;46.248;6.018;2023-12-07T03:41:13;2.40;99.90
74155;DHT22;62509;46.248;6.018;2023-12-07T03:46:18;2.40;99.90
74155;DHT22;62509;46.248;6.018;2023-12-07T03:51:22;2.50;99.90
74155;DHT22;62509;46.248;6.018;2023-12-07T03:56:25;2.60;99.90
74155;DHT22;62509;46.248;6.018;2023-12-07T04:01:30;2.60;99.90
74155;DHT22;62509;46.248;6.018;2023-12-07T04:06:34;2.60;99.90
74155;DHT22;62509;46.248;6.018;2023-12-07T04:11:37;2.60;99.90
74155;DHT22;62509;46.248;6.018;2023-12-07T04:16:42;2.50;99.90
74155;DHT22;62509;46.248;6.018;2023-12-07T04:21:46;2.50;99.90
74155;DHT22;62509;46.248;6.018;2023-12-07T04:26:49;2.50;99.90
74155;DHT22;62509;46.248;6.018;2023-12-07T04:31:54;2.40;99.90
74155;DHT22;62509;46.248;6.018;2023-12-07T04:36:58;2.40;99.90
74155;DHT22;62509;46.248;6.018;2023-12-07T04:42:01;2.40;99.90
74155;DHT22;62509;46.248;6.018;2023-12-07T04:47:07;2.40;99.90
74155;DHT22;62509;46.248;6.018;2023-12-07T04:52:10;2.40;99.90
74155;DHT22;62509;46.248;6.018;2023-12-07T04:57:14;2.40;99.90
74155;DHT22;62509;46.248;6.018;2023-12-07T05:02:19;2.40;99.90
74155;DHT22;62509;46.248;6.018;2023-12-07T05:07:23;2.30;99.90
74155;DHT22;62509;46.248;6.018;2023-12-07T05:12:27;2.40;99.90
74155;DHT22;62509;46.248;6.018;2023-12-07T05:17:32;2.30;99.90
74155;DHT22;62509;46.248;6.018;2023-12-07T05:22:35;2.20;99.90
74155;DHT22;62509;46.248;6.018;2023-12-07T05:27:38;2.10;99.90
74155;DHT22;62509;46.248;6.018;2023-12-07T05:32:43;2.00;99.90
74155;DHT22;62509;46.248;6.018;2023-12-07T05:37:47;1.90;99.90
74155;DHT22;62509;46.248;6.018;2023-12-07T05:42:50;1.70;99.90
74155;DHT22;62509;46.248;6.018;2023-12-07T05:47:55;1.60;99.90
74155;DHT22;62509;46.248;6.018;2023-12-07T05:52:58;1.50;99.90
74155;DHT22;62509;46.248;6.018;2023-12-07T05:58:02;1.40;99.90
74155;DHT22;62509;46.248;6.018;2023-12-07T06:03:07;1.40;99.90
74155;DHT22;62509;46.248;6.018;2023-12-07T06:08:11;1.40;99.90
74155;DHT22;62509;46.248;6.018;2023-12-07T06:13:14;1.40;99.90
74155;DHT22;62509;46.248;6.018;2023-12-07T06:18:19;1.10;99.90
74155;DHT22;62509;46.248;6.018;2023-12-07T06:23:23;1.00;99.90
74155;DHT22;62509;46.248;6.018;2023-12-07T06:28:27;0.80;99.90
74155;DHT22;62509;46.248;6.018;2023-12-07T06:33:32;0.80;99.90
74155;DHT22;62509;46.248;6.018;2023-12-07T06:38:36;0.80;99.90
74155;DHT22;62509;46.248;6.018;2023-12-07T06:43:40;0.60;99.90
74155;DHT22;62509;46.248;6.018;2023-12-07T06:48:45;0.70;99.90
74155;DHT22;62509;46.248;6.018;2023-12-07T06:53:49;0.60;99.90
74155;DHT22;62509;46.248;6.018;2023-12-07T06:58:52;0.40;99.90
74155;DHT22;62509;46.248;6.018;2023-12-07T07:03:58;0.30;99.90
74155;DHT22;62509;46.248;6.018;2023-12-07T07:09:01;0.40;99.90
74155;DHT22;62509;46.248;6.018;2023-12-07T07:14:06;0.50;99.90
74155;DHT22;62509;46.248;6.018;2023-12-07T07:19:13;0.50;99.90
74155;DHT22;62509;46.248;6.018;2023-12-07T07:24:18;0.50;99.90
74155;DHT22;62509;46.248;6.018;2023-12-07T07:29:22;0.60;99.90
74155;DHT22;62509;46.248;6.018;2023-12-07T07:34:29;0.70;99.90
74155;DHT22;62509;46.248;6.018;2023-12-07T07:39:33;0.70;99.90
74155;DHT22;62509;46.248;6.018;2023-12-07T07:44:36;0.70;99.90
74155;DHT22;62509;46.248;6.018;2023-12-07T07:49:41;0.80;99.90
74155;DHT22;62509;46.248;6.018;2023-12-07T07:54:45;0.70;99.90
74155;DHT22;62509;46.248;6.018;2023-12-07T07:59:48;0.80;99.90
74155;DHT22;62509;46.248;6.018;2023-12-07T08:04:53;0.80;99.90
74155;DHT22;62509;46.248;6.018;2023-12-07T08:09:57;0.90;99.90
74155;DHT22;62509;46.248;6.018;2023-12-07T08:15:05;0.70;99.90
74155;DHT22;62509;46.248;6.018;2023-12-07T08:20:15;0.80;99.90
74155;DHT22;62509;46.248;6.018;2023-12-07T08:25:18;1.10;99.90
74155;DHT22;62509;46.248;6.018;2023-12-07T08:30:23;1.20;99.90
74155;DHT22;62509;46.248;6.018;2023-12-07T08:35:28;1.50;99.90
74155;DHT22;62509;46.248;6.018;2023-12-07T08:40:31;1.50;99.90
74155;DHT22;62509;46.248;6.018;2023-12-07T08:45:34;1.80;99.90
74155;DHT22;62509;46.248;6.018;2023-12-07T08:50:42;2.00;99.90
74155;DHT22;62509;46.248;6.018;2023-12-07T08:55:45;2.10;99.90
74155;DHT22;62509;46.248;6.018;2023-12-07T09:00:48;2.00;99.90
74155;DHT22;62509;46.248;6.018;2023-12-07T09:05:53;2.20;99.90
74155;DHT22;62509;46.248;6.018;2023-12-07T09:10:57;2.40;99.90
74155;DHT22;62509;46.248;6.018;2023-12-07T09:16:01;2.50;99.90
74155;DHT22;62509;46.248;6.018;2023-12-07T09:21:06;2.70;99.90
74155;DHT22;62509;46.248;6.018;2023-12-07T09:26:10;2.70;99.90
74155;DHT22;62509;46.248;6.018;2023-12-07T09:31:13;2.80;99.90
74155;DHT22;62509;46.248;6.018;2023-12-07T09:36:20;2.80;99.90
74155;DHT22;62509;46.248;6.018;2023-12-07T09:41:26;3.20;99.90
74155;DHT22;62509;46.248;6.018;2023-12-07T09:46:30;3.30;99.90
74155;DHT22;62509;46.248;6.018;2023-12-07T09:51:36;3.40;99.90
74155;DHT22;62509;46.248;6.018;2023-12-07T09:56:39;3.40;99.90
74155;DHT22;62509;46.248;6.018;2023-12-07T10:01:45;3.60;99.90
74155;DHT22;62509;46.248;6.018;2023-12-07T10:06:50;3.80;99.90
74155;DHT22;62509;46.248;6.018;2023-12-07T10:12:01;3.80;99.90
74155;DHT22;62509;46.248;6.018;2023-12-07T10:17:05;4.30;99.90
74155;DHT22;62509;46.248;6.018;2023-12-07T10:22:14;4.50;99.90
74155;DHT22;62509;46.248;6.018;2023-12-07T10:27:17;4.70;99.90
74155;DHT22;62509;46.248;6.018;2023-12-07T10:32:21;5.10;99.90
74155;DHT22;62509;46.248;6.018;2023-12-07T10:37:26;5.30;99.90
74155;DHT22;62509;46.248;6.018;2023-12-07T10:42:32;5.50;99.90
74155;DHT22;62509;46.248;6.018;2023-12-07T10:47:38;5.40;99.90
74155;DHT22;62509;46.248;6.018;2023-12-07T10:52:44;5.40;99.90
74155;DHT22;62509;46.248;6.018;2023-12-07T10:57:48;5.60;99.90
74155;DHT22;62509;46.248;6.018;2023-12-07T11:02:52;5.40;99.90
74155;DHT22;62509;46.248;6.018;2023-12-07T11:07:59;5.50;99.90
74155;DHT22;62509;46.248;6.018;2023-12-07T11:13:07;5.30;99.90
74155;DHT22;62509;46.248;6.018;2023-12-07T11:18:15;5.30;99.90
74155;DHT22;62509;46.248;6.018;2023-12-07T11:23:20;5.50;99.90
74155;DHT22;62509;46.248;6.018;2023-12-07T11:28:36;5.40;99.90
74155;DHT22;62509;46.248;6.018;2023-12-07T11:33:42;5.40;99.90
74155;DHT22;62509;46.248;6.018;2023-12-07T11:44:32;5.10;99.90
74155;DHT22;62509;46.248;6.018;2023-12-07T11:49:36;5.20;99.90
74155;DHT22;62509;46.248;6.018;2023-12-07T11:54:41;5.20;99.90
74155;DHT22;62509;46.248;6.018;2023-12-07T11:59:46;5.30;99.90
74155;DHT22;62509;46.248;6.018;2023-12-07T12:04:50;5.40;99.90
74155;DHT22;62509;46.248;6.018;2023-12-07T12:09:55;5.40;99.90
74155;DHT22;62509;46.248;6.018;2023-12-07T12:15:01;5.30;99.40
74155;DHT22;62509;46.248;6.018;2023-12-07T12:20:05;5.20;99.30
74155;DHT22;62509;46.248;6.018;2023-12-07T12:25:11;5.30;99.90
74155;DHT22;62509;46.248;6.018;2023-12-07T12:30:15;5.30;99.40
74155;DHT22;62509;46.248;6.018;2023-12-07T12:35:18;5.30;99.20
74155;DHT22;62509;46.248;6.018;2023-12-07T12:40:23;5.30;99.90
74155;DHT22;62509;46.248;6.018;2023-12-07T12:45:32;5.20;99.90
74155;DHT22;62509;46.248;6.018;2023-12-07T12:50:36;5.30;99.20
74155;DHT22;62509;46.248;6.018;2023-12-07T12:55:41;5.30;99.70
74155;DHT22;62509;46.248;6.018;2023-12-07T13:00:45;5.20;99.90
74155;DHT22;62509;46.248;6.018;2023-12-07T13:05:49;5.30;99.60
74155;DHT22;62509;46.248;6.018;2023-12-07T13:10:54;5.50;99.00
74155;DHT22;62509;46.248;6.018;2023-12-07T13:15:58;5.50;99.90
74155;DHT22;62509;46.248;6.018;2023-12-07T13:21:01;5.60;99.00
74155;DHT22;62509;46.248;6.018;2023-12-07T13:26:06;5.40;98.30
74155;DHT22;62509;46.248;6.018;2023-12-07T13:31:11;5.40;99.30
74155;DHT22;62509;46.248;6.018;2023-12-07T13:36:15;5.00;99.20
74155;DHT22;62509;46.248;6.018;2023-12-07T13:41:21;4.90;99.90
74155;DHT22;62509;46.248;6.018;2023-12-07T13:46:25;5.10;99.90
74155;DHT22;62509;46.248;6.018;2023-12-07T13:51:28;5.00;99.90
74155;DHT22;62509;46.248;6.018;2023-12-07T13:56:33;5.00;99.90
74155;DHT22;62509;46.248;6.018;2023-12-07T14:01:36;4.90;99.90
74155;DHT22;62509;46.248;6.018;2023-12-07T14:06:41;4.80;99.90
74155;DHT22;62509;46.248;6.018;2023-12-07T14:11:46;4.80;99.90
74155;DHT22;62509;46.248;6.018;2023-12-07T14:16:49;4.90;99.90
74155;DHT22;62509;46.248;6.018;2023-12-07T14:21:57;5.00;99.90
74155;DHT22;62509;46.248;6.018;2023-12-07T14:27:02;4.90;99.90
74155;DHT22;62509;46.248;6.018;2023-12-07T14:32:06;4.80;99.90
74155;DHT22;62509;46.248;6.018;2023-12-07T14:37:11;4.70;99.90
74155;DHT22;62509;46.248;6.018;2023-12-07T14:42:16;4.60;99.90
74155;DHT22;62509;46.248;6.018;2023-12-07T14:47:21;4.50;99.90
74155;DHT22;62509;46.248;6.018;2023-12-07T14:52:24;4.50;99.90
74155;DHT22;62509;46.248;6.018;2023-12-07T14:57:30;4.50;99.90
74155;DHT22;62509;46.248;6.018;2023-12-07T15:02:34;4.50;99.90
74155;DHT22;62509;46.248;6.018;2023-12-07T15:07:37;4.50;99.90
74155;DHT22;62509;46.248;6.018;2023-12-07T15:12:42;4.40;99.90
74155;DHT22;62509;46.248;6.018;2023-12-07T15:17:47;4.30;99.90
74155;DHT22;62509;46.248;6.018;2023-12-07T15:22:50;4.20;99.90
74155;DHT22;62509;46.248;6.018;2023-12-07T15:27:55;4.20;99.90
74155;DHT22;62509;46.248;6.018;2023-12-07T15:32:59;4.10;99.90
74155;DHT22;62509;46.248;6.018;2023-12-07T15:38:03;4.00;99.90
74155;DHT22;62509;46.248;6.018;2023-12-07T15:43:08;4.10;99.90
74155;DHT22;62509;46.248;6.018;2023-12-07T15:48:12;4.20;99.90
74155;DHT22;62509;46.248;6.018;2023-12-07T15:53:15;4.10;99.90
74155;DHT22;62509;46.248;6.018;2023-12-07T15:58:21;4.00;99.90
74155;DHT22;62509;46.248;6.018;2023-12-07T16:03:24;4.00;99.90
74155;DHT22;62509;46.248;6.018;2023-12-07T16:08:30;4.00;99.90
74155;DHT22;62509;46.248;6.018;2023-12-07T16:13:35;4.00;99.90
74155;DHT22;62509;46.248;6.018;2023-12-07T16:18:38;4.10;99.90
74155;DHT22;62509;46.248;6.018;2023-12-07T16:23:43;4.10;99.90
74155;DHT22;62509;46.248;6.018;2023-12-07T16:28:48;4.10;99.90
74155;DHT22;62509;46.248;6.018;2023-12-07T16:33:54;4.00;99.90
74155;DHT22;62509;46.248;6.018;2023-12-07T16:39:01;4.10;99.90
74155;DHT22;62509;46.248;6.018;2023-12-07T16:44:07;4.10;99.90
74155;DHT22;62509;46.248;6.018;2023-12-07T16:49:10;4.00;99.90
74155;DHT22;62509;46.248;6.018;2023-12-07T16:54:14;3.90;99.90
74155;DHT22;62509;46.248;6.018;2023-12-07T16:59:19;3.90;99.90
74155;DHT22;62509;46.248;6.018;2023-12-07T17:04:22;4.00;99.90
74155;DHT22;62509;46.248;6.018;2023-12-07T17:09:26;4.00;99.90
74155;DHT22;62509;46.248;6.018;2023-12-07T17:14:30;4.00;99.90
74155;DHT22;62509;46.248;6.018;2023-12-07T17:19:34;4.00;99.90
74155;DHT22;62509;46.248;6.018;2023-12-07T17:24:48;4.00;99.90
74155;DHT22;62509;46.248;6.018;2023-12-07T17:29:53;3.90;99.90
74155;DHT22;62509;46.248;6.018;2023-12-07T17:34:57;3.90;99.90
74155;DHT22;62509;46.248;6.018;2023-12-07T17:40:01;3.90;99.90
74155;DHT22;62509;46.248;6.018;2023-12-07T17:45:06;4.00;99.90
74155;DHT22;62509;46.248;6.018;2023-12-07T17:50:10;3.90;99.90
74155;DHT22;62509;46.248;6.018;2023-12-07T17:55:14;3.90;99.90
74155;DHT22;62509;46.248;6.018;2023-12-07T18:00:19;3.90;99.90
74155;DHT22;62509;46.248;6.018;2023-12-07T18:05:22;3.90;99.90
74155;DHT22;62509;46.248;6.018;2023-12-07T18:10:26;3.90;99.90
74155;DHT22;62509;46.248;6.018;2023-12-07T18:15:31;3.80;99.90
74155;DHT22;62509;46.248;6.018;2023-12-07T18:20:34;3.80;99.90
74155;DHT22;62509;46.248;6.018;2023-12-07T18:25:38;3.80;99.90
74155;DHT22;62509;46.248;6.018;2023-12-07T18:30:43;3.70;99.90
74155;DHT22;62509;46.248;6.018;2023-12-07T18:35:46;3.70;99.90
74155;DHT22;62509;46.248;6.018;2023-12-07T18:40:51;3.70;99.90
74155;DHT22;62509;46.248;6.018;2023-12-07T18:45:55;3.70;99.90
74155;DHT22;62509;46.248;6.018;2023-12-07T18:50:59;3.80;99.90
74155;DHT22;62509;46.248;6.018;2023-12-07T18:56:02;3.80;99.90
74155;DHT22;62509;46.248;6.018;2023-12-07T19:01:08;3.80;99.90
74155;DHT22;62509;46.248;6.018;2023-12-07T19:06:11;3.80;99.90
74155;DHT22;62509;46.248;6.018;2023-12-07T19:11:15;3.70;99.90
74155;DHT22;62509;46.248;6.018;2023-12-07T19:16:19;3.70;99.90
74155;DHT22;62509;46.248;6.018;2023-12-07T19:21:23;3.60;99.90
74155;DHT22;62509;46.248;6.018;2023-12-07T19:26:26;3.40;99.90
74155;DHT22;62509;46.248;6.018;2023-12-07T19:31:31;3.30;99.90
74155;DHT22;62509;46.248;6.018;2023-12-07T19:36:38;3.40;99.90
74155;DHT22;62509;46.248;6.018;2023-12-07T19:41:42;3.40;99.90
74155;DHT22;62509;46.248;6.018;2023-12-07T19:46:47;3.40;99.90
74155;DHT22;62509;46.248;6.018;2023-12-07T19:51:51;3.40;99.90
74155;DHT22;62509;46.248;6.018;2023-12-07T19:56:54;3.40;99.90
74155;DHT22;62509;46.248;6.018;2023-12-07T20:01:59;3.50;99.90
74155;DHT22;62509;46.248;6.018;2023-12-07T20:07:03;3.50;99.90
74155;DHT22;62509;46.248;6.018;2023-12-07T20:12:07;3.60;99.90
74155;DHT22;62509;46.248;6.018;2023-12-07T20:17:13;3.50;99.90
74155;DHT22;62509;46.248;6.018;2023-12-07T20:22:18;3.50;99.90
74155;DHT22;62509;46.248;6.018;2023-12-07T20:27:21;3.50;99.90
74155;DHT22;62509;46.248;6.018;2023-12-07T20:32:26;3.50;99.90
74155;DHT22;62509;46.248;6.018;2023-12-07T20:37:30;3.50;99.90
74155;DHT22;62509;46.248;6.018;2023-12-07T20:42:33;3.50;99.90
74155;DHT22;62509;46.248;6.018;2023-12-07T20:47:38;3.50;99.90
74155;DHT22;62509;46.248;6.018;2023-12-07T20:52:42;3.50;99.90
74155;DHT22;62509;46.248;6.018;2023-12-07T20:57:45;3.50;99.90
74155;DHT22;62509;46.248;6.018;2023-12-07T21:02:51;3.40;99.90
74155;DHT22;62509;46.248;6.018;2023-12-07T21:07:56;3.40;99.90
74155;DHT22;62509;46.248;6.018;2023-12-07T21:12:59;3.40;99.90
74155;DHT22;62509;46.248;6.018;2023-12-07T21:18:04;3.30;99.90
74155;DHT22;62509;46.248;6.018;2023-12-07T21:23:08;3.20;99.90
74155;DHT22;62509;46.248;6.018;2023-12-07T21:28:13;3.10;99.90
74155;DHT22;62509;46.248;6.018;2023-12-07T21:33:18;3.20;99.90
74155;DHT22;62509;46.248;6.018;2023-12-07T21:38:22;3.20;99.90
74155;DHT22;62509;46.248;6.018;2023-12-07T21:43:25;3.20;99.90
74155;DHT22;62509;46.248;6.018;2023-12-07T21:48:30;3.30;99.90
74155;DHT22;62509;46.248;6.018;2023-12-07T21:53:34;3.30;99.90
74155;DHT22;62509;46.248;6.018;2023-12-07T21:58:38;3.30;99.90
74155;DHT22;62509;46.248;6.018;2023-12-07T22:03:43;3.20;99.90
74155;DHT22;62509;46.248;6.018;2023-12-07T22:08:47;3.30;99.90
74155;DHT22;62509;46.248;6.018;2023-12-07T22:13:50;3.20;99.90
74155;DHT22;62509;46.248;6.018;2023-12-07T22:18:55;3.20;99.90
74155;DHT22;62509;46.248;6.018;2023-12-07T22:23:58;3.30;99.90
74155;DHT22;62509;46.248;6.018;2023-12-07T22:29:02;3.30;99.90
74155;DHT22;62509;46.248;6.018;2023-12-07T22:34:07;3.30;99.90
74155;DHT22;62509;46.248;6.018;2023-12-07T22:39:10;3.30;99.90
74155;DHT22;62509;46.248;6.018;2023-12-07T22:44:14;3.20;99.90
74155;DHT22;62509;46.248;6.018;2023-12-07T22:49:18;3.30;99.90
74155;DHT22;62509;46.248;6.018;2023-12-07T22:54:22;3.30;99.90
74155;DHT22;62509;46.248;6.018;2023-12-07T22:59:25;3.30;99.90
74155;DHT22;62509;46.248;6.018;2023-12-07T23:04:30;3.20;99.90
74155;DHT22;62509;46.248;6.018;2023-12-07T23:09:33;3.30;99.90
74155;DHT22;62509;46.248;6.018;2023-12-07T23:14:36;3.20;99.90
74155;DHT22;62509;46.248;6.018;2023-12-07T23:19:41;3.20;99.90
74155;DHT22;62509;46.248;6.018;2023-12-07T23:24:45;3.20;99.90
74155;DHT22;62509;46.248;6.018;2023-12-07T23:29:49;3.10;99.90
74155;DHT22;62509;46.248;6.018;2023-12-07T23:34:57;3.10;99.90
74155;DHT22;62509;46.248;6.018;2023-12-07T23:40:00;3.10;99.90
74155;DHT22;62509;46.248;6.018;2023-12-07T23:45:04;3.00;99.90
74155;DHT22;62509;46.248;6.018;2023-12-07T23:50:10;3.00;99.90
74155;DHT22;62509;46.248;6.018;2023-12-07T23:55:13;3.00;99.90
